METAR Data
IDs: Format: Raw Decoded Include TAF

Data at: 2106 UTC 01 Dec 2021

YMEN 012100Z AUTO 36014KT 9999 // NCD 23/13 Q1012